Weather History for KIDI - March, 2012

Change the Weather History Date:

Thursday, March 29, 2012

  Actual Average Record
Temperature  
Mean Temperature 45 °F -  
Max Temperature 51 °F 58 °F 79 °F (1977)
Min Temperature 39 °F 34 °F 12 °F (2015)
Degree Days  
Heating Degree Days 20    
Moisture  
Dew Point 35 °F    
Average Humidity 71    
Maximum Humidity 81    
Minimum Humidity 61    
Precipitation  
Precipitation 0.00 in - - ()
Sea Level Pressure  
Sea Level Pressure 29.96 in    
Wind  
Wind Speed 10 mph (NW)    
Max Wind Speed 16 mph    
Max Gust Speed 24 mph    
Visibility 10 miles    
Events      
Averages and records for this station are not official NWS values.
T = Trace of Precipitation, MM = Missing Value Source: NWS Daily Summary

Daily Weather History Graph

Daily Weather History Graph

Search for Another Location

Airport or City:

Trip Planner

Search our weather history database for the weather conditions in past years. The results will help you decide how hot, cold, wet, or windy it might be!

Date:

Astronomy

Mar. 29, 2012 Rise Set
Actual Time 7:04 AM EDT 7:38 PM EDT
Civil Twilight 6:36 AM EDT 8:06 PM EDT
Nautical Twilight 6:04 AM EDT 8:38 PM EDT
Astronomical Twilight 5:30 AM EDT 9:11 PM EDT
Moon 11:09 AM EDT (3/29) 1:29 AM EDT (3/29)
Length of Visible Light 13h 29m
Length of Day
12h 34m
Waxing Crescent, 39% of the Moon is Illuminated
Mar 29
Waxing Crescent
Mar 30
First Quarter
Apr 6
Full
Apr 13
Last Quarter
Apr 21
New

Hourly Weather History & Observations

Time (EDT) Temp. Windchill Dew Point Humidity Pressure Visibility Wind Dir Wind Speed Gust Speed Precip Events Conditions
12:15 AM 51.8 °F - 41.0 °F 67% 29.82 in 10.0 mi WNW 10.4 mph - N/A   Mostly Cloudy
12:35 AM 51.8 °F - 41.0 °F 67% 29.82 in 10.0 mi NW 9.2 mph - N/A   Mostly Cloudy
12:55 AM 51.8 °F - 41.0 °F 67% 29.82 in 10.0 mi WNW 8.1 mph - N/A   Overcast
1:15 AM 51.8 °F - 39.2 °F 62% 29.82 in 10.0 mi WNW 11.5 mph - N/A   Overcast
1:35 AM 50.0 °F - 41.0 °F 71% 29.83 in 10.0 mi NW 11.5 mph - N/A   Overcast
1:55 AM 48.2 °F - 41.0 °F 76% 29.83 in 10.0 mi NW 15.0 mph 19.6 mph N/A   Overcast
2:15 AM 48.2 °F - 41.0 °F 76% 29.84 in 10.0 mi NW 12.7 mph 24.2 mph N/A   Overcast
2:35 AM 48.2 °F - 41.0 °F 76% 29.84 in 10.0 mi NW 10.4 mph 16.1 mph N/A   Overcast
2:55 AM 46.4 °F 42.4 °F 39.2 °F 76% 29.85 in 10.0 mi NW 8.1 mph - N/A   Overcast
3:15 AM 46.4 °F 39.8 °F 39.2 °F 76% 29.85 in 10.0 mi NW 16.1 mph 21.9 mph N/A   Overcast
3:35 AM 46.4 °F 42.4 °F 39.2 °F 76% 29.85 in 10.0 mi NNW 8.1 mph 18.4 mph N/A   Overcast
3:55 AM 44.6 °F 38.4 °F 37.4 °F 76% 29.86 in 10.0 mi NNW 12.7 mph 16.1 mph N/A   Overcast
4:15 AM 44.6 °F 40.2 °F 37.4 °F 76% 29.87 in 10.0 mi NNW 8.1 mph - N/A   Overcast
4:35 AM 44.6 °F 37.8 °F 35.6 °F 71% 29.88 in 10.0 mi NW 15.0 mph 19.6 mph N/A   Overcast
4:55 AM 44.6 °F 39.2 °F 35.6 °F 71% 29.89 in 10.0 mi NNW 10.4 mph - N/A   Overcast
5:15 AM 42.8 °F 36.6 °F 33.8 °F 70% 29.89 in 10.0 mi NNW 11.5 mph 16.1 mph N/A   Overcast
5:35 AM 42.8 °F 38.0 °F 33.8 °F 70% 29.90 in 10.0 mi NW 8.1 mph 19.6 mph N/A   Overcast
5:55 AM 42.8 °F 36.2 °F 33.8 °F 70% 29.91 in 10.0 mi NW 12.7 mph 19.6 mph N/A   Overcast
6:15 AM 42.8 °F 37.0 °F 33.8 °F 70% 29.92 in 10.0 mi NW 10.4 mph 18.4 mph N/A   Overcast
6:35 AM 42.8 °F 36.6 °F 33.8 °F 70% 29.92 in 10.0 mi NW 11.5 mph 20.7 mph N/A   Overcast
6:55 AM 42.8 °F 37.5 °F 33.8 °F 70% 29.94 in 10.0 mi NW 9.2 mph 17.3 mph N/A   Overcast
7:15 AM 41.0 °F 34.3 °F 33.8 °F 76% 29.94 in 10.0 mi NNW 11.5 mph 17.3 mph N/A   Overcast
7:35 AM 41.0 °F 35.8 °F 33.8 °F 76% 29.95 in 10.0 mi NW 8.1 mph - N/A   Overcast
7:55 AM 39.2 °F 32.5 °F 32.0 °F 75% 29.96 in 10.0 mi NW 10.4 mph 19.6 mph N/A   Overcast
8:15 AM 39.2 °F 33.0 °F 33.8 °F 81% 29.97 in 10.0 mi NW 9.2 mph 19.6 mph N/A   Overcast
8:35 AM 39.2 °F 32.0 °F 33.8 °F 81% 29.98 in 10.0 mi NW 11.5 mph 17.3 mph N/A   Overcast
8:55 AM 39.2 °F 32.0 °F 32.0 °F 75% 29.98 in 10.0 mi NW 11.5 mph 18.4 mph N/A   Overcast
9:15 AM 39.2 °F 32.0 °F 32.0 °F 75% 29.99 in 10.0 mi NW 11.5 mph 19.6 mph N/A   Overcast
9:35 AM 39.2 °F 33.6 °F 32.0 °F 75% 30.00 in 10.0 mi NW 8.1 mph - N/A   Overcast
9:55 AM 39.2 °F 33.0 °F 33.8 °F 81% 30.00 in 10.0 mi WNW 9.2 mph - N/A   Overcast
10:15 AM 39.2 °F 34.2 °F 33.8 °F 81% 30.01 in 10.0 mi NNW 6.9 mph - N/A   Overcast
10:35 AM 39.2 °F 32.5 °F 33.8 °F 81% 30.01 in 10.0 mi NNW 10.4 mph - N/A   Overcast
11:35 AM 39.2 °F 33.6 °F 32.0 °F 75% 30.03 in 10.0 mi NW 8.1 mph 17.3 mph N/A   Overcast
11:55 AM 39.2 °F 32.0 °F 32.0 °F 75% 30.03 in 10.0 mi NW 11.5 mph 18.4 mph N/A   Overcast
12:15 PM 41.0 °F 35.8 °F 32.0 °F 70% 30.03 in 10.0 mi NW 8.1 mph - N/A   Overcast
12:35 PM 42.8 °F 37.5 °F 32.0 °F 66% 30.03 in 10.0 mi NW 9.2 mph 18.4 mph N/A   Overcast
12:55 PM 42.8 °F 37.0 °F 32.0 °F 66% 30.03 in 10.0 mi NNW 10.4 mph 17.3 mph N/A   Overcast
1:15 PM 42.8 °F 36.2 °F 33.8 °F 70% 30.03 in 10.0 mi NW 12.7 mph 16.1 mph N/A   Overcast
1:35 PM 44.6 °F 39.7 °F 32.0 °F 61% 30.03 in 10.0 mi WNW 9.2 mph - N/A   Overcast
1:55 PM 44.6 °F 39.7 °F 33.8 °F 66% 30.03 in 10.0 mi NNW 9.2 mph - N/A   Overcast
2:15 PM 44.6 °F 38.8 °F 33.8 °F 66% 30.03 in 10.0 mi NW 11.5 mph 19.6 mph N/A   Overcast
2:35 PM 46.4 °F 41.1 °F 33.8 °F 62% 30.02 in 10.0 mi NW 11.5 mph - N/A   Overcast
2:55 PM 46.4 °F 41.1 °F 33.8 °F 62% 30.02 in 10.0 mi NW 11.5 mph 19.6 mph N/A   Overcast
3:15 PM 46.4 °F 40.7 °F 33.8 °F 62% 30.02 in 10.0 mi NW 12.7 mph - N/A   Overcast
3:35 PM 46.4 °F 40.7 °F 35.6 °F 66% 30.02 in 10.0 mi NNW 12.7 mph 16.1 mph N/A   Overcast
3:55 PM 46.4 °F 41.9 °F 35.6 °F 66% 30.01 in 10.0 mi NNW 9.2 mph 16.1 mph N/A   Overcast
4:15 PM 46.4 °F 40.7 °F 33.8 °F 62% 30.01 in 10.0 mi NW 12.7 mph - N/A   Mostly Cloudy
4:35 PM 46.4 °F 41.5 °F 35.6 °F 66% 30.01 in 10.0 mi NNW 10.4 mph 16.1 mph N/A   Mostly Cloudy
4:55 PM 46.4 °F 42.9 °F 35.6 °F 66% 30.00 in 10.0 mi North 6.9 mph - N/A   Mostly Cloudy
5:15 PM 46.4 °F 42.9 °F 33.8 °F 62% 30.01 in 10.0 mi NNW 6.9 mph - N/A   Mostly Cloudy
5:35 PM 46.4 °F 42.9 °F 35.6 °F 66% 30.01 in 10.0 mi North 6.9 mph - N/A   Mostly Cloudy
5:55 PM 44.6 °F 40.2 °F 33.8 °F 66% 30.02 in 10.0 mi North 8.1 mph - N/A   Mostly Cloudy
6:15 PM 44.6 °F 39.2 °F 33.8 °F 66% 30.02 in 10.0 mi NW 10.4 mph - N/A   Mostly Cloudy
6:35 PM 44.6 °F 38.8 °F 33.8 °F 66% 30.03 in 10.0 mi NW 11.5 mph - N/A   Mostly Cloudy
6:55 PM 42.8 °F 38.0 °F 33.8 °F 70% 30.04 in 10.0 mi NW 8.1 mph - N/A   Scattered Clouds
7:15 PM 42.8 °F 38.6 °F 33.8 °F 70% 30.04 in 10.0 mi NW 6.9 mph - N/A   Scattered Clouds
7:35 PM 41.0 °F 36.4 °F 32.0 °F 70% 30.05 in 10.0 mi NW 6.9 mph - N/A   Scattered Clouds
7:55 PM 39.2 °F 37.0 °F 32.0 °F 75% 30.05 in 10.0 mi WNW 3.5 mph - N/A   Scattered Clouds
8:15 PM 39.2 °F 37.0 °F 32.0 °F 75% 30.05 in 10.0 mi WNW 3.5 mph - N/A   Mostly Cloudy
8:35 PM 39.2 °F - 32.0 °F 75% 30.06 in 10.0 mi Calm Calm - N/A   Mostly Cloudy
8:55 PM 37.4 °F 33.8 °F 32.0 °F 81% 30.06 in 10.0 mi NW 4.6 mph - N/A   Clear
9:15 PM 37.4 °F - 32.0 °F 81% 30.07 in 10.0 mi Calm Calm - N/A   Clear
9:35 PM 37.4 °F - 32.0 °F 81% 30.08 in 10.0 mi Calm Calm - N/A   Clear
9:55 PM 35.6 °F - 30.2 °F 81% 30.08 in 10.0 mi Calm Calm - N/A   Clear
10:15 PM 35.6 °F - 30.2 °F 81% 30.08 in 10.0 mi Calm Calm - N/A   Clear
10:35 PM 35.6 °F 32.8 °F 30.2 °F 81% 30.08 in 10.0 mi North 3.5 mph - N/A   Clear
10:55 PM 35.6 °F - 30.2 °F 81% 30.08 in 10.0 mi Calm Calm - N/A   Clear
11:15 PM 33.8 °F - 30.2 °F 87% 30.08 in 10.0 mi Calm Calm - N/A   Clear
11:35 PM 33.8 °F - 30.2 °F 87% 30.08 in 10.0 mi Calm Calm - N/A   Clear
11:55 PM 33.8 °F - 32.0 °F 93% 30.08 in 10.0 mi Calm Calm - N/A   Clear